sensor_id;sensor_type;location;lat;lon;timestamp;pressure;altitude;pressure_sealevel;temperature;humidity
35848;BME280;22332;51.954;20.118;2023-04-24T00:02:47;99284.52;;;10.10;59.65
35848;BME280;22332;51.954;20.118;2023-04-24T00:05:53;99281.14;;;10.07;59.74
35848;BME280;22332;51.954;20.118;2023-04-24T00:08:58;99282.75;;;10.03;60.05
35848;BME280;22332;51.954;20.118;2023-04-24T00:12:04;99278.84;;;10.05;59.99
35848;BME280;22332;51.954;20.118;2023-04-24T00:15:11;99278.70;;;10.08;60.20
35848;BME280;22332;51.954;20.118;2023-04-24T00:18:17;99278.70;;;10.10;59.96
35848;BME280;22332;51.954;20.118;2023-04-24T00:21:23;99277.79;;;10.10;60.40
35848;BME280;22332;51.954;20.118;2023-04-24T00:24:29;99276.36;;;10.10;60.24
35848;BME280;22332;51.954;20.118;2023-04-24T00:27:35;99272.80;;;10.11;60.46
35848;BME280;22332;51.954;20.118;2023-04-24T00:30:41;99271.19;;;10.12;60.50
35848;BME280;22332;51.954;20.118;2023-04-24T00:33:46;99280.38;;;10.05;60.82
35848;BME280;22332;51.954;20.118;2023-04-24T00:36:52;99274.82;;;9.96;60.53
35848;BME280;22332;51.954;20.118;2023-04-24T00:39:57;99272.46;;;9.94;60.65
35848;BME280;22332;51.954;20.118;2023-04-24T00:43:03;99278.27;;;9.90;60.68
35848;BME280;22332;51.954;20.118;2023-04-24T00:46:09;99273.00;;;9.86;60.74
35848;BME280;22332;51.954;20.118;2023-04-24T00:49:15;99268.33;;;9.83;61.03
35848;BME280;22332;51.954;20.118;2023-04-24T00:52:21;99266.00;;;9.80;60.97
35848;BME280;22332;51.954;20.118;2023-04-24T00:55:28;99264.48;;;9.75;61.21
35848;BME280;22332;51.954;20.118;2023-04-24T00:58:34;99265.60;;;9.70;61.00
35848;BME280;22332;51.954;20.118;2023-04-24T01:01:40;99267.02;;;9.65;61.11
35848;BME280;22332;51.954;20.118;2023-04-24T01:04:47;99267.31;;;9.62;61.32
35848;BME280;22332;51.954;20.118;2023-04-24T01:07:53;99263.21;;;9.62;61.24
35848;BME280;22332;51.954;20.118;2023-04-24T01:10:59;99265.05;;;9.60;61.49
35848;BME280;22332;51.954;20.118;2023-04-24T01:14:06;99260.95;;;9.59;61.76
35848;BME280;22332;51.954;20.118;2023-04-24T01:17:11;99261.51;;;9.58;61.82
35848;BME280;22332;51.954;20.118;2023-04-24T01:20:18;99257.52;;;9.64;61.90
35848;BME280;22332;51.954;20.118;2023-04-24T01:23:25;99254.98;;;9.71;62.01
35848;BME280;22332;51.954;20.118;2023-04-24T01:26:30;99253.16;;;9.74;61.89
35848;BME280;22332;51.954;20.118;2023-04-24T01:29:36;99254.70;;;9.75;61.90
35848;BME280;22332;51.954;20.118;2023-04-24T01:32:43;99249.34;;;9.72;62.17
35848;BME280;22332;51.954;20.118;2023-04-24T01:35:50;99246.16;;;9.69;62.46
35848;BME280;22332;51.954;20.118;2023-04-24T01:38:56;99242.67;;;9.67;61.93
35848;BME280;22332;51.954;20.118;2023-04-24T01:42:04;99240.48;;;9.64;62.02
35848;BME280;22332;51.954;20.118;2023-04-24T01:45:12;99239.51;;;9.58;62.19
35848;BME280;22332;51.954;20.118;2023-04-24T01:48:18;99233.41;;;9.53;62.22
35848;BME280;22332;51.954;20.118;2023-04-24T01:51:24;99238.42;;;9.49;62.27
35848;BME280;22332;51.954;20.118;2023-04-24T01:54:30;99234.09;;;9.45;62.53
35848;BME280;22332;51.954;20.118;2023-04-24T01:57:36;99228.02;;;9.42;62.60
35848;BME280;22332;51.954;20.118;2023-04-24T02:00:41;99229.84;;;9.38;62.58
35848;BME280;22332;51.954;20.118;2023-04-24T02:03:47;99229.52;;;9.33;62.88
35848;BME280;22332;51.954;20.118;2023-04-24T02:06:52;99229.97;;;9.29;62.94
35848;BME280;22332;51.954;20.118;2023-04-24T02:09:58;99225.35;;;9.26;62.92
35848;BME280;22332;51.954;20.118;2023-04-24T02:13:04;99222.29;;;9.23;63.10
35848;BME280;22332;51.954;20.118;2023-04-24T02:16:09;99221.47;;;9.22;63.27
35848;BME280;22332;51.954;20.118;2023-04-24T02:19:15;99215.37;;;9.25;63.26
35848;BME280;22332;51.954;20.118;2023-04-24T02:22:21;99210.38;;;9.28;63.32
35848;BME280;22332;51.954;20.118;2023-04-24T02:25:26;99208.10;;;9.31;63.31
35848;BME280;22332;51.954;20.118;2023-04-24T02:28:33;99203.22;;;9.30;63.37
35848;BME280;22332;51.954;20.118;2023-04-24T02:31:39;99200.05;;;9.31;63.43
35848;BME280;22332;51.954;20.118;2023-04-24T02:34:44;99196.16;;;9.26;63.47
35848;BME280;22332;51.954;20.118;2023-04-24T02:37:50;99196.08;;;9.23;63.46
35848;BME280;22332;51.954;20.118;2023-04-24T02:40:56;99191.40;;;9.20;63.81
35848;BME280;22332;51.954;20.118;2023-04-24T02:44:01;99193.98;;;9.19;63.82
35848;BME280;22332;51.954;20.118;2023-04-24T02:47:07;99194.60;;;9.14;63.74
35848;BME280;22332;51.954;20.118;2023-04-24T02:50:13;99192.35;;;9.08;63.99
35848;BME280;22332;51.954;20.118;2023-04-24T02:53:18;99191.91;;;9.04;63.88
35848;BME280;22332;51.954;20.118;2023-04-24T02:56:24;99191.40;;;9.00;63.94
35848;BME280;22332;51.954;20.118;2023-04-24T02:59:30;99188.52;;;8.95;64.05
35848;BME280;22332;51.954;20.118;2023-04-24T03:02:36;99186.89;;;8.88;64.11
35848;BME280;22332;51.954;20.118;2023-04-24T03:05:41;99185.81;;;8.84;64.17
35848;BME280;22332;51.954;20.118;2023-04-24T03:08:47;99189.27;;;8.81;64.22
35848;BME280;22332;51.954;20.118;2023-04-24T03:11:52;99190.23;;;8.80;64.19
35848;BME280;22332;51.954;20.118;2023-04-24T03:14:58;99186.02;;;8.80;64.29
35848;BME280;22332;51.954;20.118;2023-04-24T03:18:03;99187.44;;;8.83;64.31
35848;BME280;22332;51.954;20.118;2023-04-24T03:21:09;99185.34;;;8.83;64.34
35848;BME280;22332;51.954;20.118;2023-04-24T03:24:15;99187.28;;;8.82;64.37
35848;BME280;22332;51.954;20.118;2023-04-24T03:27:21;99188.92;;;8.83;64.40
35848;BME280;22332;51.954;20.118;2023-04-24T03:30:31;99188.23;;;8.81;64.55
35848;BME280;22332;51.954;20.118;2023-04-24T03:33:38;99187.07;;;8.80;64.66
35848;BME280;22332;51.954;20.118;2023-04-24T03:36:44;99189.09;;;8.81;64.70
35848;BME280;22332;51.954;20.118;2023-04-24T03:39:52;99188.77;;;8.81;64.84
35848;BME280;22332;51.954;20.118;2023-04-24T03:43:00;99189.80;;;8.81;65.00
35848;BME280;22332;51.954;20.118;2023-04-24T03:46:07;99187.03;;;8.85;65.25
35848;BME280;22332;51.954;20.118;2023-04-24T03:49:17;99183.96;;;8.92;65.29
35848;BME280;22332;51.954;20.118;2023-04-24T03:52:24;99183.52;;;9.01;65.31
35848;BME280;22332;51.954;20.118;2023-04-24T03:55:30;99177.46;;;9.16;65.50
35848;BME280;22332;51.954;20.118;2023-04-24T03:58:36;99178.23;;;9.32;65.44
35848;BME280;22332;51.954;20.118;2023-04-24T04:01:43;99179.27;;;9.44;65.64
35848;BME280;22332;51.954;20.118;2023-04-24T04:04:52;99177.45;;;9.57;65.70
35848;BME280;22332;51.954;20.118;2023-04-24T04:07:58;99177.52;;;9.66;65.77
35848;BME280;22332;51.954;20.118;2023-04-24T04:11:04;99176.11;;;9.76;65.68
35848;BME280;22332;51.954;20.118;2023-04-24T04:14:10;99173.76;;;9.86;66.08
35848;BME280;22332;51.954;20.118;2023-04-24T04:17:16;99170.27;;;9.96;66.23
35848;BME280;22332;51.954;20.118;2023-04-24T04:20:22;99169.52;;;10.09;66.49
35848;BME280;22332;51.954;20.118;2023-04-24T04:23:28;99168.88;;;10.25;66.46
35848;BME280;22332;51.954;20.118;2023-04-24T04:26:44;99171.30;;;10.43;66.56
35848;BME280;22332;51.954;20.118;2023-04-24T04:29:59;99168.52;;;10.65;66.47
35848;BME280;22332;51.954;20.118;2023-04-24T04:33:07;99167.26;;;10.83;66.57
35848;BME280;22332;51.954;20.118;2023-04-24T04:36:15;99166.10;;;10.99;66.71
35848;BME280;22332;51.954;20.118;2023-04-24T04:39:23;99164.10;;;11.18;66.63
35848;BME280;22332;51.954;20.118;2023-04-24T04:42:34;99164.29;;;11.33;66.48
35848;BME280;22332;51.954;20.118;2023-04-24T04:45:40;99163.40;;;11.44;66.61
35848;BME280;22332;51.954;20.118;2023-04-24T04:49:05;99164.52;;;11.52;66.97
35848;BME280;22332;51.954;20.118;2023-04-24T04:52:13;99162.27;;;11.59;67.22
35848;BME280;22332;51.954;20.118;2023-04-24T04:55:21;99165.19;;;11.66;67.33
35848;BME280;22332;51.954;20.118;2023-04-24T04:58:48;99160.42;;;11.73;67.42
35848;BME280;22332;51.954;20.118;2023-04-24T05:01:54;99158.38;;;11.81;67.25
35848;BME280;22332;51.954;20.118;2023-04-24T05:05:00;99159.98;;;11.87;67.24
35848;BME280;22332;51.954;20.118;2023-04-24T05:08:05;99157.35;;;11.93;67.30
35848;BME280;22332;51.954;20.118;2023-04-24T05:11:12;99166.80;;;12.00;67.42
35848;BME280;22332;51.954;20.118;2023-04-24T05:14:17;99163.48;;;12.08;67.08
35848;BME280;22332;51.954;20.118;2023-04-24T05:17:23;99162.08;;;12.15;67.20
35848;BME280;22332;51.954;20.118;2023-04-24T05:20:30;99165.44;;;12.24;67.05
35848;BME280;22332;51.954;20.118;2023-04-24T05:23:36;99164.33;;;12.31;66.98
35848;BME280;22332;51.954;20.118;2023-04-24T05:26:42;99166.17;;;12.38;66.92
35848;BME280;22332;51.954;20.118;2023-04-24T05:29:47;99164.15;;;12.43;66.93
35848;BME280;22332;51.954;20.118;2023-04-24T05:32:53;99161.80;;;12.47;66.92
35848;BME280;22332;51.954;20.118;2023-04-24T05:35:59;99164.14;;;12.52;67.06
35848;BME280;22332;51.954;20.118;2023-04-24T05:39:05;99163.36;;;12.56;67.11
35848;BME280;22332;51.954;20.118;2023-04-24T05:42:11;99159.26;;;12.57;67.02
35848;BME280;22332;51.954;20.118;2023-04-24T05:45:16;99157.30;;;12.65;67.22
35848;BME280;22332;51.954;20.118;2023-04-24T05:48:22;99158.77;;;12.76;67.26
35848;BME280;22332;51.954;20.118;2023-04-24T05:51:28;99160.80;;;12.87;67.41
35848;BME280;22332;51.954;20.118;2023-04-24T05:54:34;99161.30;;;12.98;67.43
35848;BME280;22332;51.954;20.118;2023-04-24T05:57:40;99155.09;;;13.13;67.47
35848;BME280;22332;51.954;20.118;2023-04-24T06:00:46;99153.77;;;13.32;67.42
35848;BME280;22332;51.954;20.118;2023-04-24T06:03:52;99150.02;;;13.53;67.31
35848;BME280;22332;51.954;20.118;2023-04-24T06:06:58;99148.77;;;13.73;67.12
35848;BME280;22332;51.954;20.118;2023-04-24T06:10:04;99144.75;;;13.93;67.10
35848;BME280;22332;51.954;20.118;2023-04-24T06:13:15;99142.98;;;14.15;67.02
35848;BME280;22332;51.954;20.118;2023-04-24T06:16:29;99142.28;;;14.35;66.61
35848;BME280;22332;51.954;20.118;2023-04-24T06:19:39;99142.21;;;14.53;66.53
35848;BME280;22332;51.954;20.118;2023-04-24T06:22:44;99146.70;;;14.69;66.18
35848;BME280;22332;51.954;20.118;2023-04-24T06:25:50;99155.70;;;14.79;65.94
35848;BME280;22332;51.954;20.118;2023-04-24T06:28:56;99149.59;;;14.84;65.68
35848;BME280;22332;51.954;20.118;2023-04-24T06:32:03;99151.69;;;14.87;65.68
35848;BME280;22332;51.954;20.118;2023-04-24T06:35:10;99152.05;;;14.86;65.48
35848;BME280;22332;51.954;20.118;2023-04-24T06:38:16;99150.95;;;14.88;65.57
35848;BME280;22332;51.954;20.118;2023-04-24T06:41:22;99146.97;;;14.91;65.46
35848;BME280;22332;51.954;20.118;2023-04-24T06:44:27;99150.48;;;14.93;65.34
35848;BME280;22332;51.954;20.118;2023-04-24T06:47:33;99147.46;;;14.97;65.48
35848;BME280;22332;51.954;20.118;2023-04-24T06:50:39;99148.65;;;15.04;65.41
35848;BME280;22332;51.954;20.118;2023-04-24T06:53:44;99150.55;;;15.08;65.18
35848;BME280;22332;51.954;20.118;2023-04-24T06:56:50;99149.59;;;15.13;65.42
35848;BME280;22332;51.954;20.118;2023-04-24T06:59:56;99147.58;;;15.23;65.36
35848;BME280;22332;51.954;20.118;2023-04-24T07:03:01;99145.73;;;15.32;65.17
35848;BME280;22332;51.954;20.118;2023-04-24T07:06:08;99146.76;;;15.40;65.14
35848;BME280;22332;51.954;20.118;2023-04-24T07:09:15;99150.55;;;15.53;64.93
35848;BME280;22332;51.954;20.118;2023-04-24T07:12:22;99142.67;;;15.68;64.96
35848;BME280;22332;51.954;20.118;2023-04-24T07:15:28;99141.28;;;15.87;64.76
35848;BME280;22332;51.954;20.118;2023-04-24T07:18:34;99140.54;;;16.02;64.56
35848;BME280;22332;51.954;20.118;2023-04-24T07:21:40;99140.64;;;16.14;64.53
35848;BME280;22332;51.954;20.118;2023-04-24T07:24:46;99137.17;;;16.25;64.76
35848;BME280;22332;51.954;20.118;2023-04-24T07:27:51;99133.64;;;16.43;64.75
35848;BME280;22332;51.954;20.118;2023-04-24T07:30:57;99130.40;;;16.69;64.84
35848;BME280;22332;51.954;20.118;2023-04-24T07:34:04;99127.83;;;16.96;64.57
35848;BME280;22332;51.954;20.118;2023-04-24T07:37:09;99122.14;;;17.25;64.22
35848;BME280;22332;51.954;20.118;2023-04-24T07:40:15;99124.56;;;17.56;64.13
35848;BME280;22332;51.954;20.118;2023-04-24T07:43:21;99129.14;;;17.86;63.51
35848;BME280;22332;51.954;20.118;2023-04-24T07:46:28;99120.65;;;18.12;62.73
35848;BME280;22332;51.954;20.118;2023-04-24T07:49:34;99117.30;;;18.26;61.49
35848;BME280;22332;51.954;20.118;2023-04-24T07:52:40;99113.39;;;18.35;61.54
35848;BME280;22332;51.954;20.118;2023-04-24T07:55:46;99105.27;;;18.42;61.45
35848;BME280;22332;51.954;20.118;2023-04-24T07:58:51;99107.48;;;18.51;61.42
35848;BME280;22332;51.954;20.118;2023-04-24T08:01:56;99107.33;;;18.58;60.82
35848;BME280;22332;51.954;20.118;2023-04-24T08:05:02;99110.27;;;18.57;60.60
35848;BME280;22332;51.954;20.118;2023-04-24T08:08:08;99108.42;;;18.50;59.92
35848;BME280;22332;51.954;20.118;2023-04-24T08:11:13;99112.66;;;18.44;59.68
35848;BME280;22332;51.954;20.118;2023-04-24T08:14:19;99109.88;;;18.36;59.65
35848;BME280;22332;51.954;20.118;2023-04-24T08:17:25;99111.91;;;18.31;59.57
35848;BME280;22332;51.954;20.118;2023-04-24T08:20:30;99110.02;;;18.33;59.60
35848;BME280;22332;51.954;20.118;2023-04-24T08:23:36;99111.96;;;18.47;59.60
35848;BME280;22332;51.954;20.118;2023-04-24T08:26:42;99109.27;;;18.67;59.34
35848;BME280;22332;51.954;20.118;2023-04-24T08:29:48;99109.59;;;18.85;58.95
35848;BME280;22332;51.954;20.118;2023-04-24T08:32:53;99112.33;;;18.98;58.53
35848;BME280;22332;51.954;20.118;2023-04-24T08:35:59;99107.73;;;19.05;58.21
35848;BME280;22332;51.954;20.118;2023-04-24T08:39:05;99107.72;;;19.09;57.23
35848;BME280;22332;51.954;20.118;2023-04-24T08:42:12;99104.15;;;19.12;56.81
35848;BME280;22332;51.954;20.118;2023-04-24T08:45:19;99104.77;;;19.15;56.42
35848;BME280;22332;51.954;20.118;2023-04-24T08:48:25;99098.77;;;19.18;55.54
35848;BME280;22332;51.954;20.118;2023-04-24T08:51:32;99097.57;;;19.22;55.39
35848;BME280;22332;51.954;20.118;2023-04-24T08:54:38;99093.37;;;19.21;54.79
35848;BME280;22332;51.954;20.118;2023-04-24T08:57:45;99097.83;;;19.12;54.33
35848;BME280;22332;51.954;20.118;2023-04-24T09:00:56;99099.98;;;19.02;54.45
35848;BME280;22332;51.954;20.118;2023-04-24T09:04:03;99099.65;;;19.01;54.66
35848;BME280;22332;51.954;20.118;2023-04-24T09:07:11;99096.55;;;19.10;54.96
35848;BME280;22332;51.954;20.118;2023-04-24T09:10:17;99090.45;;;19.32;54.43
35848;BME280;22332;51.954;20.118;2023-04-24T09:13:23;99089.61;;;19.54;54.01
35848;BME280;22332;51.954;20.118;2023-04-24T09:16:29;99089.61;;;19.69;53.47
35848;BME280;22332;51.954;20.118;2023-04-24T09:19:37;99091.69;;;19.76;52.36
35848;BME280;22332;51.954;20.118;2023-04-24T09:22:43;99091.14;;;19.78;52.05
35848;BME280;22332;51.954;20.118;2023-04-24T09:25:55;99090.84;;;19.83;52.32
35848;BME280;22332;51.954;20.118;2023-04-24T09:29:02;99089.70;;;19.86;52.20
35848;BME280;22332;51.954;20.118;2023-04-24T09:32:21;99088.05;;;19.87;51.62
35848;BME280;22332;51.954;20.118;2023-04-24T09:35:29;99081.42;;;19.89;52.07
35848;BME280;22332;51.954;20.118;2023-04-24T09:38:38;99083.86;;;19.92;52.01
35848;BME280;22332;51.954;20.118;2023-04-24T09:41:47;99078.48;;;19.97;50.03
35848;BME280;22332;51.954;20.118;2023-04-24T09:44:53;99077.23;;;19.98;50.40
35848;BME280;22332;51.954;20.118;2023-04-24T09:48:00;99074.88;;;20.02;50.59
35848;BME280;22332;51.954;20.118;2023-04-24T09:51:06;99069.39;;;20.04;50.29
35848;BME280;22332;51.954;20.118;2023-04-24T09:54:19;99065.92;;;20.10;50.08
35848;BME280;22332;51.954;20.118;2023-04-24T09:57:25;99062.48;;;20.18;49.64
35848;BME280;22332;51.954;20.118;2023-04-24T10:00:32;99058.40;;;20.27;49.49
35848;BME280;22332;51.954;20.118;2023-04-24T10:03:38;99057.66;;;20.35;50.01
35848;BME280;22332;51.954;20.118;2023-04-24T10:06:48;99054.73;;;20.42;49.71
35848;BME280;22332;51.954;20.118;2023-04-24T10:09:54;99047.86;;;20.49;49.57
35848;BME280;22332;51.954;20.118;2023-04-24T10:13:00;99044.48;;;20.58;49.35
35848;BME280;22332;51.954;20.118;2023-04-24T10:16:06;99044.13;;;20.70;49.05
35848;BME280;22332;51.954;20.118;2023-04-24T10:19:12;99044.57;;;20.73;48.52
35848;BME280;22332;51.954;20.118;2023-04-24T10:22:18;99041.88;;;20.75;48.11
35848;BME280;22332;51.954;20.118;2023-04-24T10:25:25;99037.69;;;20.82;48.03
35848;BME280;22332;51.954;20.118;2023-04-24T10:28:33;99032.13;;;20.87;47.74
35848;BME280;22332;51.954;20.118;2023-04-24T10:31:39;99026.70;;;20.91;47.48
35848;BME280;22332;51.954;20.118;2023-04-24T10:34:45;99023.26;;;20.93;46.62
35848;BME280;22332;51.954;20.118;2023-04-24T10:37:53;99020.06;;;20.98;46.53
35848;BME280;22332;51.954;20.118;2023-04-24T10:41:08;99017.59;;;21.05;46.14
35848;BME280;22332;51.954;20.118;2023-04-24T10:44:18;99017.26;;;21.08;45.40
35848;BME280;22332;51.954;20.118;2023-04-24T10:47:27;99010.95;;;21.06;45.23
35848;BME280;22332;51.954;20.118;2023-04-24T10:50:45;99004.27;;;21.06;45.75
35848;BME280;22332;51.954;20.118;2023-04-24T10:53:52;99002.66;;;21.08;45.53
35848;BME280;22332;51.954;20.118;2023-04-24T10:57:26;98998.48;;;21.11;45.30
35848;BME280;22332;51.954;20.118;2023-04-24T11:00:37;98988.88;;;21.12;44.98
35848;BME280;22332;51.954;20.118;2023-04-24T11:03:55;98988.46;;;21.13;44.45
35848;BME280;22332;51.954;20.118;2023-04-24T11:07:01;98994.05;;;21.17;44.00
35848;BME280;22332;51.954;20.118;2023-04-24T11:10:08;98993.61;;;21.27;43.63
35848;BME280;22332;51.954;20.118;2023-04-24T11:13:21;98989.66;;;21.37;43.85
35848;BME280;22332;51.954;20.118;2023-04-24T11:16:29;98992.68;;;21.50;43.44
35848;BME280;22332;51.954;20.118;2023-04-24T11:19:38;98993.08;;;21.66;43.84
35848;BME280;22332;51.954;20.118;2023-04-24T11:22:44;98985.56;;;21.83;43.59
35848;BME280;22332;51.954;20.118;2023-04-24T11:26:13;98985.88;;;22.00;43.65
35848;BME280;22332;51.954;20.118;2023-04-24T11:29:22;98979.66;;;22.23;43.37
35848;BME280;22332;51.954;20.118;2023-04-24T11:32:29;98978.81;;;22.41;43.13
35848;BME280;22332;51.954;20.118;2023-04-24T11:35:40;98982.89;;;22.50;42.76
35848;BME280;22332;51.954;20.118;2023-04-24T11:38:46;98980.25;;;22.55;42.36
35848;BME280;22332;51.954;20.118;2023-04-24T11:41:52;98978.88;;;22.52;41.36
35848;BME280;22332;51.954;20.118;2023-04-24T11:44:58;98987.97;;;22.46;42.70
35848;BME280;22332;51.954;20.118;2023-04-24T11:48:05;98993.42;;;22.40;41.88
35848;BME280;22332;51.954;20.118;2023-04-24T11:51:10;98994.25;;;22.33;42.34
35848;BME280;22332;51.954;20.118;2023-04-24T11:54:17;99013.30;;;22.25;41.33
35848;BME280;22332;51.954;20.118;2023-04-24T11:57:23;99020.54;;;22.01;41.21
35848;BME280;22332;51.954;20.118;2023-04-24T12:00:33;99023.50;;;21.65;41.23
35848;BME280;22332;51.954;20.118;2023-04-24T12:03:39;99030.95;;;21.38;42.07
35848;BME280;22332;51.954;20.118;2023-04-24T12:07:02;99030.56;;;21.18;42.57
35848;BME280;22332;51.954;20.118;2023-04-24T12:10:09;99026.86;;;20.99;44.01
35848;BME280;22332;51.954;20.118;2023-04-24T12:13:15;99042.96;;;20.61;45.09
35848;BME280;22332;51.954;20.118;2023-04-24T12:16:21;99054.80;;;20.24;45.86
35848;BME280;22332;51.954;20.118;2023-04-24T12:19:26;99061.06;;;19.99;47.07
35848;BME280;22332;51.954;20.118;2023-04-24T12:22:49;99065.80;;;19.71;47.38
35848;BME280;22332;51.954;20.118;2023-04-24T12:25:54;99068.52;;;19.46;47.62
35848;BME280;22332;51.954;20.118;2023-04-24T12:29:05;99074.40;;;19.27;47.59
35848;BME280;22332;51.954;20.118;2023-04-24T12:32:18;99082.02;;;19.01;47.53
35848;BME280;22332;51.954;20.118;2023-04-24T12:35:25;99091.98;;;18.78;47.50
35848;BME280;22332;51.954;20.118;2023-04-24T12:38:31;99100.80;;;18.61;48.29
35848;BME280;22332;51.954;20.118;2023-04-24T12:41:55;99103.53;;;18.41;47.87
35848;BME280;22332;51.954;20.118;2023-04-24T12:45:04;99083.66;;;18.24;47.75
35848;BME280;22332;51.954;20.118;2023-04-24T12:48:10;99075.52;;;18.08;48.12
35848;BME280;22332;51.954;20.118;2023-04-24T12:51:16;99063.09;;;17.94;47.89
35848;BME280;22332;51.954;20.118;2023-04-24T12:54:21;99053.47;;;17.89;48.01
35848;BME280;22332;51.954;20.118;2023-04-24T12:57:29;99053.29;;;17.87;48.11
35848;BME280;22332;51.954;20.118;2023-04-24T13:00:35;99052.97;;;17.85;47.78
35848;BME280;22332;51.954;20.118;2023-04-24T13:03:41;99038.05;;;17.86;47.72
35848;BME280;22332;51.954;20.118;2023-04-24T13:06:47;99029.38;;;17.87;47.96
35848;BME280;22332;51.954;20.118;2023-04-24T13:09:54;99014.73;;;17.86;47.80
35848;BME280;22332;51.954;20.118;2023-04-24T13:13:00;99004.92;;;17.86;48.02
35848;BME280;22332;51.954;20.118;2023-04-24T13:16:06;98998.34;;;17.85;48.39
35848;BME280;22332;51.954;20.118;2023-04-24T13:19:11;98978.38;;;17.79;48.43
35848;BME280;22332;51.954;20.118;2023-04-24T13:22:17;98967.39;;;17.80;48.55
35848;BME280;22332;51.954;20.118;2023-04-24T13:25:23;98963.30;;;17.84;48.62
35848;BME280;22332;51.954;20.118;2023-04-24T13:28:29;98960.79;;;17.89;48.59
35848;BME280;22332;51.954;20.118;2023-04-24T13:31:35;98959.11;;;17.91;48.46
35848;BME280;22332;51.954;20.118;2023-04-24T13:34:40;98949.81;;;17.95;48.38
35848;BME280;22332;51.954;20.118;2023-04-24T13:37:46;98944.00;;;18.00;48.29
35848;BME280;22332;51.954;20.118;2023-04-24T13:40:51;98942.27;;;18.07;48.10
35848;BME280;22332;51.954;20.118;2023-04-24T13:43:57;98937.48;;;18.15;48.10
35848;BME280;22332;51.954;20.118;2023-04-24T13:47:02;98926.94;;;18.26;47.81
35848;BME280;22332;51.954;20.118;2023-04-24T13:50:09;98921.87;;;18.39;47.78
35848;BME280;22332;51.954;20.118;2023-04-24T13:53:15;98918.17;;;18.53;47.67
35848;BME280;22332;51.954;20.118;2023-04-24T13:56:21;98911.27;;;18.67;47.44
35848;BME280;22332;51.954;20.118;2023-04-24T13:59:26;98901.23;;;18.88;47.23
35848;BME280;22332;51.954;20.118;2023-04-24T14:02:32;98897.84;;;19.11;47.21
35848;BME280;22332;51.954;20.118;2023-04-24T14:05:37;98888.77;;;19.37;46.76
35848;BME280;22332;51.954;20.118;2023-04-24T14:08:43;98889.48;;;19.60;46.34
35848;BME280;22332;51.954;20.118;2023-04-24T14:11:48;98891.46;;;19.84;45.98
35848;BME280;22332;51.954;20.118;2023-04-24T14:14:54;98887.15;;;20.07;45.58
35848;BME280;22332;51.954;20.118;2023-04-24T14:18:00;98883.45;;;20.29;45.61
35848;BME280;22332;51.954;20.118;2023-04-24T14:21:06;98881.25;;;20.52;44.90
35848;BME280;22332;51.954;20.118;2023-04-24T14:24:11;98874.39;;;20.69;44.49
35848;BME280;22332;51.954;20.118;2023-04-24T14:27:17;98865.59;;;20.86;44.32
35848;BME280;22332;51.954;20.118;2023-04-24T14:30:23;98862.02;;;21.02;44.32
35848;BME280;22332;51.954;20.118;2023-04-24T14:33:28;98859.79;;;21.19;44.32
35848;BME280;22332;51.954;20.118;2023-04-24T14:36:34;98850.46;;;21.31;43.83
35848;BME280;22332;51.954;20.118;2023-04-24T14:39:39;98851.30;;;21.36;43.49
35848;BME280;22332;51.954;20.118;2023-04-24T14:42:45;98849.58;;;21.37;43.51
35848;BME280;22332;51.954;20.118;2023-04-24T14:45:50;98844.32;;;21.37;43.39
35848;BME280;22332;51.954;20.118;2023-04-24T14:48:56;98838.00;;;21.35;43.03
35848;BME280;22332;51.954;20.118;2023-04-24T14:52:01;98832.27;;;21.30;42.95
35848;BME280;22332;51.954;20.118;2023-04-24T14:55:08;98832.02;;;21.26;42.76
35848;BME280;22332;51.954;20.118;2023-04-24T14:58:14;98820.92;;;21.16;42.49
35848;BME280;22332;51.954;20.118;2023-04-24T15:01:19;98821.85;;;21.06;42.63
35848;BME280;22332;51.954;20.118;2023-04-24T15:04:25;98820.80;;;20.99;42.36
35848;BME280;22332;51.954;20.118;2023-04-24T15:07:31;98818.23;;;20.95;42.37
35848;BME280;22332;51.954;20.118;2023-04-24T15:10:37;98816.64;;;20.93;42.02
35848;BME280;22332;51.954;20.118;2023-04-24T15:13:42;98811.83;;;20.91;41.83
35848;BME280;22332;51.954;20.118;2023-04-24T15:16:49;98805.50;;;20.86;41.60
35848;BME280;22332;51.954;20.118;2023-04-24T15:19:55;98803.37;;;20.85;41.24
35848;BME280;22332;51.954;20.118;2023-04-24T15:23:01;98800.80;;;20.82;41.29
35848;BME280;22332;51.954;20.118;2023-04-24T15:26:06;98796.34;;;20.81;40.89
35848;BME280;22332;51.954;20.118;2023-04-24T15:29:12;98794.39;;;20.81;41.22
35848;BME280;22332;51.954;20.118;2023-04-24T15:32:18;98787.65;;;20.80;40.38
35848;BME280;22332;51.954;20.118;2023-04-24T15:35:23;98788.71;;;20.76;40.38
35848;BME280;22332;51.954;20.118;2023-04-24T15:38:29;98784.25;;;20.71;39.98
35848;BME280;22332;51.954;20.118;2023-04-24T15:41:34;98782.64;;;20.66;40.11
35848;BME280;22332;51.954;20.118;2023-04-24T15:44:40;98785.10;;;20.63;40.04
35848;BME280;22332;51.954;20.118;2023-04-24T15:47:46;98781.12;;;20.62;40.08
35848;BME280;22332;51.954;20.118;2023-04-24T15:50:52;98779.41;;;20.60;39.92
35848;BME280;22332;51.954;20.118;2023-04-24T15:53:57;98784.23;;;20.55;39.95
35848;BME280;22332;51.954;20.118;2023-04-24T15:57:03;98781.74;;;20.51;39.69
35848;BME280;22332;51.954;20.118;2023-04-24T16:00:10;98779.38;;;20.48;39.84
35848;BME280;22332;51.954;20.118;2023-04-24T16:03:17;98785.30;;;20.45;39.91
35848;BME280;22332;51.954;20.118;2023-04-24T16:06:22;98783.43;;;20.41;39.65
35848;BME280;22332;51.954;20.118;2023-04-24T16:12:34;98785.77;;;20.32;39.69
35848;BME280;22332;51.954;20.118;2023-04-24T16:15:40;98783.10;;;20.28;39.74
35848;BME280;22332;51.954;20.118;2023-04-24T16:18:45;98781.35;;;20.22;39.75
35848;BME280;22332;51.954;20.118;2023-04-24T16:21:51;98779.27;;;20.15;39.56
35848;BME280;22332;51.954;20.118;2023-04-24T16:24:59;98774.52;;;20.09;39.70